Time;durP1;ratioP1;P1;durP2;ratioP2;P2;SDS_P1;SDS_P2;PMS_P1;PMS_P2;Temp;Humidity;BMP_temperature;BMP_pressure;BME280_temperature;BME280_humidity;BME280_pressure;Samples;Min_cycle;Max_cycle;Signal;HPM_P1;HPM_P2
2022/12/28 00:01:35;;;;;;;12.80;3.03;;;;;;;;;;4993133;28;20046;-91
2022/12/28 00:04:02;;;;;;;4.55;2.08;;;;;;;;;;4971551;28;20042;-90
2022/12/28 00:06:28;;;;;;;8.32;2.47;;;;;;;;;;5004766;28;20038;-90
2022/12/28 00:08:55;;;;;;;14.30;2.58;;;;;;;;;;5000181;28;20054;-91
2022/12/28 00:11:22;;;;;;;5.15;1.35;;;;;;;;;;4996732;28;20030;-90
2022/12/28 00:13:48;;;;;;;4.88;2.63;;;;;;;;;;4986027;28;20018;-91
2022/12/28 00:16:17;;;;;;;6.93;2.85;;;;;;;;;;4999586;28;20041;-90
2022/12/28 00:18:43;;;;;;;7.75;2.90;;;;;;;;;;5002596;28;20042;-91
2022/12/28 00:21:09;;;;;;;2.90;1.65;;;;;;;;;;5000223;28;20034;-90
2022/12/28 00:23:35;;;;;;;2.88;1.88;;;;;;;;;;4988973;28;20041;-90
2022/12/28 00:26:13;;;;;;;10.02;3.55;;;;;;;;;;4975498;28;20077;-90
2022/12/28 00:28:40;;;;;;;7.05;3.03;;;;;;;;;;5004085;28;20387;-90
2022/12/28 00:31:06;;;;;;;14.45;3.67;;;;;;;;;;4995476;28;20025;-89
2022/12/28 00:33:32;;;;;;;10.98;3.40;;;;;;;;;;5004368;28;20033;-90
2022/12/28 00:35:59;;;;;;;7.57;2.72;;;;;;;;;;5002170;28;20129;-91
2022/12/28 00:38:26;;;;;;;12.05;3.15;;;;;;;;;;4990907;28;20041;-91
2022/12/28 00:40:52;;;;;;;4.32;2.53;;;;;;;;;;4991847;28;20117;-89
2022/12/28 00:43:18;;;;;;;7.50;3.30;;;;;;;;;;4981791;28;20040;-89
2022/12/28 00:45:46;;;;;;;9.52;3.58;;;;;;;;;;4974780;28;20147;-90
2022/12/28 00:48:12;;;;;;;5.78;2.83;;;;;;;;;;5001563;28;20121;-90
2022/12/28 00:50:38;;;;;;;10.45;4.28;;;;;;;;;;4985525;28;20659;-90
2022/12/28 00:53:04;;;;;;;11.68;4.28;;;;;;;;;;4997140;28;20173;-91
2022/12/28 00:55:30;;;;;;;14.57;4.15;;;;;;;;;;4986305;28;20054;-91
2022/12/28 00:57:59;;;;;;;11.40;4.07;;;;;;;;;;4973005;28;20046;-90
2022/12/28 01:00:25;;;;;;;8.05;3.40;;;;;;;;;;4983549;28;20405;-90
2022/12/28 01:02:52;;;;;;;12.55;3.80;;;;;;;;;;4990074;28;20040;-90
2022/12/28 01:05:18;;;;;;;11.48;3.10;;;;;;;;;;5000131;28;20041;-88
2022/12/28 01:07:44;;;;;;;15.60;4.57;;;;;;;;;;4997991;28;20069;-90
2022/12/28 01:10:10;;;;;;;15.90;3.70;;;;;;;;;;5003046;28;20034;-89
2022/12/28 01:12:36;;;;;;;7.22;2.75;;;;;;;;;;4979946;28;20030;-91
2022/12/28 01:15:03;;;;;;;15.32;4.28;;;;;;;;;;4989788;28;20087;-91
2022/12/28 01:17:29;;;;;;;11.02;4.35;;;;;;;;;;4989074;28;20052;-91
2022/12/28 01:19:55;;;;;;;7.60;2.88;;;;;;;;;;4992151;28;20065;-90
2022/12/28 01:22:21;;;;;;;16.60;3.63;;;;;;;;;;4992950;28;20547;-90
2022/12/28 01:24:47;;;;;;;5.00;2.72;;;;;;;;;;4983955;28;20109;-90
2022/12/28 01:27:14;;;;;;;12.23;5.20;;;;;;;;;;4973349;28;20881;-90
2022/12/28 01:29:40;;;;;;;2.05;1.77;;;;;;;;;;5001300;28;20075;-89
2022/12/28 01:32:06;;;;;;;5.72;2.60;;;;;;;;;;4985623;28;20511;-90
2022/12/28 01:34:32;;;;;;;16.33;4.13;;;;;;;;;;4971948;28;20037;-90
2022/12/28 01:37:04;;;;;;;6.90;2.75;;;;;;;;;;4971846;28;20034;-90
2022/12/28 01:39:31;;;;;;;6.88;2.70;;;;;;;;;;5003305;28;20662;-90
2022/12/28 01:41:57;;;;;;;7.18;3.28;;;;;;;;;;4968293;28;20057;-90
2022/12/28 01:44:23;;;;;;;9.30;4.35;;;;;;;;;;4982975;28;20089;-90
2022/12/28 01:46:50;;;;;;;6.97;3.35;;;;;;;;;;4990997;28;20049;-89
2022/12/28 01:49:19;;;;;;;11.15;3.08;;;;;;;;;;5012901;28;20041;-89
2022/12/28 01:51:48;;;;;;;6.40;2.75;;;;;;;;;;5002019;28;20030;-89
2022/12/28 01:54:14;;;;;;;15.02;3.55;;;;;;;;;;5000600;28;20109;-90
2022/12/28 01:56:41;;;;;;;8.90;3.22;;;;;;;;;;4997941;28;20030;-90
2022/12/28 01:59:07;;;;;;;6.43;3.83;;;;;;;;;;4988464;28;20564;-92
2022/12/28 02:01:33;;;;;;;14.32;4.35;;;;;;;;;;5002522;28;20044;-90
2022/12/28 02:03:59;;;;;;;12.18;4.28;;;;;;;;;;4970302;28;20042;-89
2022/12/28 02:06:25;;;;;;;4.55;3.00;;;;;;;;;;4999426;28;20050;-90
2022/12/28 02:09:09;;;;;;;11.65;3.65;;;;;;;;;;4998728;28;20042;-90
2022/12/28 02:11:36;;;;;;;10.68;3.78;;;;;;;;;;5000229;28;20076;-90
2022/12/28 02:14:02;;;;;;;5.88;2.53;;;;;;;;;;4990854;28;20590;-90
2022/12/28 02:16:29;;;;;;;4.88;2.75;;;;;;;;;;5007552;28;20061;-89
2022/12/28 02:18:55;;;;;;;4.88;3.20;;;;;;;;;;4989354;28;20033;-89
2022/12/28 02:21:39;;;;;;;10.15;2.95;;;;;;;;;;4974188;28;20072;-90
2022/12/28 02:24:14;;;;;;;8.63;2.97;;;;;;;;;;5002973;28;20029;-90
2022/12/28 02:26:59;;;;;;;11.55;3.30;;;;;;;;;;4989812;28;20034;-90
2022/12/28 02:29:31;;;;;;;5.85;2.92;;;;;;;;;;5003944;28;20037;-90
2022/12/28 02:32:10;;;;;;;5.90;4.18;;;;;;;;;;5002596;28;20480;-89
2022/12/28 02:34:51;;;;;;;10.90;3.40;;;;;;;;;;4992326;28;20038;-89
2022/12/28 02:37:31;;;;;;;6.85;3.55;;;;;;;;;;5001991;28;20065;-90
2022/12/28 02:40:09;;;;;;;7.55;3.35;;;;;;;;;;5004138;28;20477;-90
2022/12/28 02:42:36;;;;;;;4.18;2.65;;;;;;;;;;4990800;28;20429;-89
2022/12/28 02:51:00;;;;;;;12.90;3.60;;;;;;;;;;4996343;28;20328;-89
2022/12/28 02:53:36;;;;;;;4.25;2.60;;;;;;;;;;5006396;28;20103;-91
2022/12/28 02:56:21;;;;;;;9.70;3.78;;;;;;;;;;4992652;28;20033;-90
2022/12/28 02:58:56;;;;;;;5.65;2.72;;;;;;;;;;5010433;28;20124;-90
2022/12/28 03:01:34;;;;;;;6.25;3.95;;;;;;;;;;5003275;28;20120;-89
2022/12/28 03:04:12;;;;;;;4.65;2.67;;;;;;;;;;4987469;28;20413;-91
2022/12/28 03:09:48;;;;;;;8.63;2.95;;;;;;;;;;5002555;28;20291;-90
2022/12/28 03:12:18;;;;;;;10.75;4.38;;;;;;;;;;5008423;28;20393;-89
2022/12/28 03:14:52;;;;;;;6.13;3.20;;;;;;;;;;4989806;28;20032;-90
2022/12/28 03:31:15;;;;;;;9.40;3.30;;;;;;;;;;5008396;28;20588;-89
2022/12/28 03:33:43;;;;;;;7.50;3.33;;;;;;;;;;4992427;28;20033;-90
2022/12/28 03:36:15;;;;;;;8.60;4.05;;;;;;;;;;4993072;28;20037;-89
2022/12/28 03:38:41;;;;;;;2.33;1.88;;;;;;;;;;5010733;28;20075;-91
2022/12/28 03:41:09;;;;;;;4.07;2.47;;;;;;;;;;4987152;28;20034;-90
2022/12/28 03:43:44;;;;;;;4.95;2.28;;;;;;;;;;5005430;28;20093;-90
2022/12/28 03:46:10;;;;;;;8.30;2.72;;;;;;;;;;4994835;28;20524;-89
2022/12/28 03:48:36;;;;;;;7.05;3.60;;;;;;;;;;5008857;28;20038;-90
2022/12/28 03:51:02;;;;;;;7.75;2.88;;;;;;;;;;4992613;28;20528;-89
2022/12/28 03:53:31;;;;;;;4.25;1.73;;;;;;;;;;4988098;28;20091;-89
2022/12/28 03:56:07;;;;;;;4.15;2.40;;;;;;;;;;5000059;28;20165;-90
2022/12/28 03:58:33;;;;;;;4.13;2.30;;;;;;;;;;4990591;28;20220;-90
2022/12/28 04:00:59;;;;;;;4.93;2.67;;;;;;;;;;4992028;28;20041;-90
2022/12/28 04:03:25;;;;;;;7.18;3.47;;;;;;;;;;4982610;28;20046;-89
2022/12/28 04:05:51;;;;;;;9.50;3.40;;;;;;;;;;4981051;28;20037;-89
2022/12/28 04:08:32;;;;;;;5.63;2.65;;;;;;;;;;4992454;28;20057;-89
2022/12/28 04:10:59;;;;;;;4.03;2.40;;;;;;;;;;5006930;28;20496;-89
2022/12/28 04:13:25;;;;;;;3.63;2.30;;;;;;;;;;5004826;28;20305;-90
2022/12/28 04:15:55;;;;;;;5.95;2.78;;;;;;;;;;4995414;28;20046;-89
2022/12/28 04:18:21;;;;;;;3.42;2.22;;;;;;;;;;5009537;28;20083;-89
2022/12/28 04:20:47;;;;;;;11.32;3.45;;;;;;;;;;4974182;28;20741;-90
2022/12/28 04:23:13;;;;;;;7.10;1.70;;;;;;;;;;5001259;28;20389;-89
2022/12/28 04:25:39;;;;;;;10.95;2.95;;;;;;;;;;4975200;28;20038;-89
2022/12/28 04:28:05;;;;;;;6.13;3.35;;;;;;;;;;4996225;28;20037;-90
2022/12/28 04:30:31;;;;;;;3.78;2.08;;;;;;;;;;4985570;28;20701;-89
2022/12/28 04:32:57;;;;;;;6.97;3.67;;;;;;;;;;4976058;28;20058;-89
2022/12/28 04:35:23;;;;;;;6.40;2.70;;;;;;;;;;4968552;28;20071;-89
2022/12/28 04:37:49;;;;;;;4.47;2.95;;;;;;;;;;4988801;28;20486;-89
2022/12/28 04:40:15;;;;;;;3.03;2.30;;;;;;;;;;4973846;28;20048;-89
2022/12/28 04:42:41;;;;;;;1.80;1.13;;;;;;;;;;4991123;28;20029;-90
2022/12/28 04:45:07;;;;;;;2.58;2.08;;;;;;;;;;4969650;28;20039;-90
2022/12/28 04:47:33;;;;;;;3.20;1.90;;;;;;;;;;4970756;28;20046;-90
2022/12/28 04:49:59;;;;;;;3.50;2.42;;;;;;;;;;4982720;28;20156;-89
2022/12/28 04:52:25;;;;;;;2.97;1.95;;;;;;;;;;4995627;28;20066;-89
2022/12/28 04:54:51;;;;;;;6.57;2.42;;;;;;;;;;4997022;28;20595;-90
2022/12/28 04:57:17;;;;;;;3.55;2.22;;;;;;;;;;4984960;28;20061;-90
2022/12/28 04:59:43;;;;;;;5.03;2.65;;;;;;;;;;4986378;28;20157;-90
2022/12/28 05:02:09;;;;;;;12.80;2.42;;;;;;;;;;4970120;28;20031;-89
2022/12/28 05:04:35;;;;;;;3.10;2.35;;;;;;;;;;4975305;28;20054;-90
2022/12/28 05:07:01;;;;;;;3.35;2.40;;;;;;;;;;4971510;28;20068;-90
2022/12/28 05:09:34;;;;;;;5.18;2.88;;;;;;;;;;4975297;28;20161;-89
2022/12/28 05:12:00;;;;;;;4.88;2.90;;;;;;;;;;5005258;28;20100;-90
2022/12/28 05:14:26;;;;;;;5.75;2.85;;;;;;;;;;4973028;28;20038;-90
2022/12/28 05:16:52;;;;;;;5.55;3.60;;;;;;;;;;4985352;28;20033;-90
2022/12/28 05:19:18;;;;;;;3.85;2.03;;;;;;;;;;4969355;28;20489;-90
2022/12/28 05:21:44;;;;;;;8.13;3.38;;;;;;;;;;4985184;28;20779;-89
2022/12/28 05:24:10;;;;;;;3.95;2.30;;;;;;;;;;5001672;28;20705;-89
2022/12/28 05:26:36;;;;;;;5.53;2.83;;;;;;;;;;4990113;28;20053;-89
2022/12/28 05:29:02;;;;;;;4.53;2.10;;;;;;;;;;5000282;28;21018;-89
2022/12/28 05:31:28;;;;;;;4.30;2.38;;;;;;;;;;4982786;28;20038;-89
2022/12/28 05:33:54;;;;;;;4.35;2.40;;;;;;;;;;4985237;28;20088;-89
2022/12/28 05:36:22;;;;;;;5.78;4.05;;;;;;;;;;4985103;28;20032;-89
2022/12/28 05:38:48;;;;;;;5.55;3.35;;;;;;;;;;4988374;28;20040;-89
2022/12/28 05:41:16;;;;;;;7.53;2.92;;;;;;;;;;4990077;28;21866;-89
2022/12/28 05:43:43;;;;;;;3.50;2.83;;;;;;;;;;5000627;28;20042;-89
2022/12/28 05:46:10;;;;;;;5.40;3.08;;;;;;;;;;4982800;28;20040;-90
2022/12/28 05:48:37;;;;;;;6.10;3.90;;;;;;;;;;5001321;28;20444;-90
2022/12/28 05:51:05;;;;;;;5.35;3.25;;;;;;;;;;4993851;28;20382;-90
2022/12/28 05:53:32;;;;;;;7.47;4.28;;;;;;;;;;5001486;28;20462;-90
2022/12/28 05:56:02;;;;;;;5.57;3.08;;;;;;;;;;4997849;28;20034;-90
2022/12/28 05:58:28;;;;;;;11.15;3.90;;;;;;;;;;4989103;28;20041;-90
2022/12/28 06:00:54;;;;;;;16.77;5.07;;;;;;;;;;4988912;28;20040;-90
2022/12/28 06:03:20;;;;;;;7.78;3.42;;;;;;;;;;5001729;28;20398;-90
2022/12/28 06:05:46;;;;;;;7.25;4.38;;;;;;;;;;4973869;28;20037;-91
2022/12/28 06:08:12;;;;;;;5.28;3.05;;;;;;;;;;5004299;28;20058;-90
2022/12/28 06:10:38;;;;;;;9.07;5.05;;;;;;;;;;4973027;28;20041;-90
2022/12/28 06:13:04;;;;;;;8.52;3.50;;;;;;;;;;4984466;28;20041;-90
2022/12/28 06:15:30;;;;;;;10.82;5.85;;;;;;;;;;4972954;28;20018;-91
2022/12/28 06:17:56;;;;;;;14.05;5.07;;;;;;;;;;4970320;28;20061;-91
2022/12/28 06:20:22;;;;;;;8.60;4.95;;;;;;;;;;4972519;28;20074;-90
2022/12/28 06:22:48;;;;;;;11.73;5.80;;;;;;;;;;4971850;28;20438;-91
2022/12/28 06:25:14;;;;;;;10.50;6.05;;;;;;;;;;5006643;28;20125;-91
2022/12/28 06:27:40;;;;;;;12.20;6.25;;;;;;;;;;4994955;28;20071;-90
2022/12/28 06:30:06;;;;;;;7.47;4.30;;;;;;;;;;4987697;28;20057;-91
2022/12/28 06:32:32;;;;;;;8.52;4.13;;;;;;;;;;4991315;28;20042;-90
2022/12/28 06:34:58;;;;;;;9.02;4.90;;;;;;;;;;4988623;28;20026;-91
2022/12/28 06:37:24;;;;;;;7.85;4.13;;;;;;;;;;4983535;28;20034;-91
2022/12/28 06:39:50;;;;;;;8.48;4.43;;;;;;;;;;4984719;28;20438;-91
2022/12/28 06:42:16;;;;;;;7.80;4.88;;;;;;;;;;4996322;28;20478;-91
2022/12/28 06:44:42;;;;;;;5.07;3.63;;;;;;;;;;4967209;28;20041;-91
2022/12/28 06:47:08;;;;;;;7.75;4.35;;;;;;;;;;4970994;28;20053;-90
2022/12/28 06:49:34;;;;;;;13.05;4.10;;;;;;;;;;4995546;28;20044;-91
2022/12/28 06:52:00;;;;;;;15.82;4.93;;;;;;;;;;4972658;28;20037;-90
2022/12/28 06:54:26;;;;;;;2.85;1.65;;;;;;;;;;5005571;28;20113;-91
2022/12/28 06:56:52;;;;;;;8.43;4.80;;;;;;;;;;4975010;28;20042;-90
2022/12/28 06:59:18;;;;;;;8.57;4.63;;;;;;;;;;4971881;28;20022;-90
2022/12/28 07:01:44;;;;;;;6.13;3.47;;;;;;;;;;4970777;28;20417;-90
2022/12/28 07:04:11;;;;;;;6.22;4.00;;;;;;;;;;4986139;28;20112;-90
2022/12/28 07:06:39;;;;;;;7.10;3.85;;;;;;;;;;4993953;28;20026;-90
2022/12/28 07:09:07;;;;;;;7.60;3.70;;;;;;;;;;5009242;28;20454;-91
2022/12/28 07:11:33;;;;;;;6.35;3.22;;;;;;;;;;4987692;28;20057;-90
2022/12/28 07:13:59;;;;;;;4.95;3.17;;;;;;;;;;4991159;28;20452;-90
2022/12/28 07:16:26;;;;;;;9.88;4.40;;;;;;;;;;4970282;28;20129;-90
2022/12/28 07:18:52;;;;;;;7.05;3.75;;;;;;;;;;5007186;28;20511;-91
2022/12/28 07:21:20;;;;;;;9.13;4.63;;;;;;;;;;4993148;28;20042;-89
2022/12/28 07:23:46;;;;;;;6.32;3.63;;;;;;;;;;4987074;28;20030;-91
2022/12/28 07:26:13;;;;;;;3.92;2.30;;;;;;;;;;4991778;28;20092;-92
2022/12/28 07:28:40;;;;;;;3.85;2.55;;;;;;;;;;4998717;28;20116;-92
2022/12/28 07:31:15;;;;;;;7.85;4.10;;;;;;;;;;4989905;28;20080;-92
2022/12/28 07:33:41;;;;;;;10.13;4.55;;;;;;;;;;4990154;28;20030;-91
2022/12/28 07:36:08;;;;;;;7.15;3.47;;;;;;;;;;4972378;28;20121;-91
2022/12/28 07:38:34;;;;;;;6.13;3.65;;;;;;;;;;5001089;28;20034;-91
2022/12/28 07:41:01;;;;;;;12.93;5.43;;;;;;;;;;4992918;28;20048;-90
2022/12/28 07:43:29;;;;;;;6.15;2.95;;;;;;;;;;4989781;28;20021;-90
2022/12/28 07:46:02;;;;;;;4.57;3.38;;;;;;;;;;5006014;28;20026;-91
2022/12/28 07:48:30;;;;;;;14.63;5.65;;;;;;;;;;5002292;28;20041;-91
2022/12/28 07:50:56;;;;;;;7.47;3.38;;;;;;;;;;4985264;28;20114;-91
2022/12/28 07:53:22;;;;;;;7.47;3.47;;;;;;;;;;4989794;28;20113;-91
2022/12/28 07:55:57;;;;;;;7.82;4.18;;;;;;;;;;4979558;28;20041;-91
2022/12/28 07:58:24;;;;;;;19.77;5.50;;;;;;;;;;4997700;28;20129;-92
2022/12/28 08:00:50;;;;;;;11.98;4.50;;;;;;;;;;4988376;28;20378;-93
2022/12/28 08:03:17;;;;;;;9.30;4.00;;;;;;;;;;5002361;28;20052;-91
2022/12/28 08:05:43;;;;;;;18.02;6.50;;;;;;;;;;4973750;28;20145;-91
2022/12/28 08:08:22;;;;;;;15.55;4.10;;;;;;;;;;4993735;28;20080;-91
2022/12/28 08:10:48;;;;;;;14.13;4.75;;;;;;;;;;4962126;28;20050;-92
2022/12/28 08:13:14;;;;;;;5.90;3.25;;;;;;;;;;4983380;28;20031;-92
2022/12/28 08:15:40;;;;;;;12.77;4.25;;;;;;;;;;4956228;28;20070;-92
2022/12/28 08:18:06;;;;;;;16.20;4.38;;;;;;;;;;4954806;28;20062;-91
2022/12/28 08:20:32;;;;;;;6.45;3.72;;;;;;;;;;4958783;28;20320;-91
2022/12/28 08:22:58;;;;;;;6.10;3.92;;;;;;;;;;4948449;28;20034;-92
2022/12/28 08:25:24;;;;;;;12.77;5.63;;;;;;;;;;4986240;28;20081;-91
2022/12/28 08:27:50;;;;;;;11.65;5.88;;;;;;;;;;4946854;28;20113;-91
2022/12/28 08:30:16;;;;;;;20.95;5.63;;;;;;;;;;4951842;28;20030;-92
2022/12/28 08:32:42;;;;;;;16.10;6.95;;;;;;;;;;4979947;28;20045;-92
2022/12/28 08:35:08;;;;;;;12.40;5.00;;;;;;;;;;4974714;28;20067;-92
2022/12/28 08:37:34;;;;;;;10.30;5.38;;;;;;;;;;4949889;28;20509;-92
2022/12/28 08:40:00;;;;;;;18.00;7.05;;;;;;;;;;4979777;28;20482;-92
2022/12/28 08:42:26;;;;;;;28.35;4.05;;;;;;;;;;4981465;28;20042;-91
2022/12/28 08:44:52;;;;;;;15.00;6.68;;;;;;;;;;4981885;28;20034;-91
2022/12/28 08:47:18;;;;;;;13.10;5.53;;;;;;;;;;4956591;28;20389;-91
2022/12/28 08:49:44;;;;;;;6.50;3.75;;;;;;;;;;4955224;28;20038;-92
2022/12/28 08:52:10;;;;;;;6.90;2.92;;;;;;;;;;4956830;28;20040;-92
2022/12/28 08:54:36;;;;;;;11.55;6.22;;;;;;;;;;4958332;28;20068;-92
2022/12/28 08:57:02;;;;;;;9.93;6.15;;;;;;;;;;4949726;28;20023;-92
2022/12/28 08:59:28;;;;;;;6.32;3.08;;;;;;;;;;4949811;28;20038;-92
2022/12/28 09:01:54;;;;;;;5.35;3.35;;;;;;;;;;4968377;28;20410;-91
2022/12/28 09:04:21;;;;;;;8.48;4.55;;;;;;;;;;4949233;28;20039;-92
2022/12/28 09:06:48;;;;;;;10.38;5.25;;;;;;;;;;4975395;28;20033;-92
2022/12/28 09:09:15;;;;;;;8.23;3.72;;;;;;;;;;4987651;28;20054;-92
2022/12/28 09:11:41;;;;;;;6.30;3.63;;;;;;;;;;4988595;28;20030;-92
2022/12/28 09:14:09;;;;;;;9.90;3.88;;;;;;;;;;5003035;28;20045;-92
2022/12/28 09:16:35;;;;;;;5.07;3.30;;;;;;;;;;4990354;28;20057;-91
2022/12/28 09:19:02;;;;;;;7.55;4.18;;;;;;;;;;4983459;28;20916;-91
2022/12/28 09:21:30;;;;;;;8.00;3.33;;;;;;;;;;4994637;28;20040;-91
2022/12/28 09:23:57;;;;;;;2.97;1.80;;;;;;;;;;5000597;28;20038;-91
2022/12/28 09:26:24;;;;;;;4.53;2.80;;;;;;;;;;4997706;28;20037;-91
2022/12/28 09:28:51;;;;;;;3.67;2.38;;;;;;;;;;4984930;28;20030;-91
2022/12/28 09:31:18;;;;;;;2.13;1.40;;;;;;;;;;4980319;28;20041;-92
2022/12/28 09:34:00;;;;;;;3.80;1.73;;;;;;;;;;4986022;28;20037;-91
2022/12/28 09:36:31;;;;;;;3.25;2.05;;;;;;;;;;5000970;28;20116;-91
2022/12/28 09:38:58;;;;;;;4.80;1.77;;;;;;;;;;4981726;28;20442;-91
2022/12/28 09:41:32;;;;;;;4.22;2.40;;;;;;;;;;4969156;28;20033;-91
2022/12/28 09:44:04;;;;;;;4.75;2.05;;;;;;;;;;4989138;28;20116;-91
2022/12/28 09:46:31;;;;;;;6.35;3.13;;;;;;;;;;4995571;28;20030;-92
2022/12/28 09:48:59;;;;;;;3.13;1.58;;;;;;;;;;4997568;28;20031;-92
2022/12/28 09:51:30;;;;;;;4.70;2.70;;;;;;;;;;4999291;28;20049;-91
2022/12/28 09:53:57;;;;;;;5.32;2.90;;;;;;;;;;4985242;28;20037;-92
2022/12/28 09:56:23;;;;;;;4.95;2.92;;;;;;;;;;4973786;28;20497;-93
2022/12/28 09:58:50;;;;;;;4.35;2.60;;;;;;;;;;4999315;28;20022;-93
2022/12/28 10:01:17;;;;;;;12.65;3.53;;;;;;;;;;4987123;28;20029;-92
2022/12/28 10:03:45;;;;;;;2.75;1.65;;;;;;;;;;4985620;28;20041;-92
2022/12/28 10:06:39;;;;;;;3.45;2.42;;;;;;;;;;4988606;28;20034;-92
2022/12/28 10:09:13;;;;;;;4.00;2.63;;;;;;;;;;4986028;28;20038;-93
2022/12/28 10:11:40;;;;;;;4.88;2.63;;;;;;;;;;4993333;28;20466;-92
2022/12/28 10:14:18;;;;;;;4.10;1.95;;;;;;;;;;5000550;28;20045;-93
2022/12/28 10:16:44;;;;;;;7.07;1.70;;;;;;;;;;4984175;28;20149;-93
2022/12/28 10:19:15;;;;;;;4.60;2.03;;;;;;;;;;4982240;28;20041;-93
2022/12/28 10:21:41;;;;;;;1.38;1.02;;;;;;;;;;4988426;28;20040;-93
2022/12/28 10:24:07;;;;;;;4.40;2.83;;;;;;;;;;4988799;28;20124;-94
2022/12/28 10:26:34;;;;;;;4.20;2.53;;;;;;;;;;4975228;28;20049;-92
2022/12/28 10:29:00;;;;;;;4.15;1.85;;;;;;;;;;5002979;28;20378;-93
2022/12/28 10:31:37;;;;;;;4.05;1.65;;;;;;;;;;4997524;28;20022;-92
2022/12/28 10:34:19;;;;;;;7.30;4.25;;;;;;;;;;4988065;28;21396;-92
2022/12/28 10:36:46;;;;;;;7.40;3.28;;;;;;;;;;5005166;28;20022;-92
2022/12/28 10:39:20;;;;;;;6.60;3.65;;;;;;;;;;4973643;28;20049;-92
2022/12/28 10:41:46;;;;;;;5.07;3.47;;;;;;;;;;4988723;28;20026;-92
2022/12/28 10:44:19;;;;;;;5.50;3.63;;;;;;;;;;4972286;28;20049;-92
2022/12/28 10:47:04;;;;;;;6.95;2.97;;;;;;;;;;5000297;28;20034;-91
2022/12/28 10:49:33;;;;;;;2.08;1.08;;;;;;;;;;5004094;28;20905;-93
2022/12/28 10:51:59;;;;;;;5.85;2.97;;;;;;;;;;4988182;28;20125;-93
2022/12/28 10:54:25;;;;;;;9.02;3.22;;;;;;;;;;5000502;28;20037;-93
2022/12/28 10:56:51;;;;;;;6.07;2.67;;;;;;;;;;4979249;28;20030;-91
2022/12/28 10:59:19;;;;;;;4.32;2.35;;;;;;;;;;4974207;28;20129;-92
2022/12/28 11:01:45;;;;;;;7.95;3.53;;;;;;;;;;4995617;28;20045;-92
2022/12/28 11:04:22;;;;;;;4.18;2.63;;;;;;;;;;4995935;28;20084;-93
2022/12/28 11:07:01;;;;;;;2.95;2.00;;;;;;;;;;4998939;28;20045;-92
2022/12/28 11:09:29;;;;;;;3.42;1.98;;;;;;;;;;4990814;28;20042;-93
2022/12/28 11:11:56;;;;;;;4.43;2.70;;;;;;;;;;4981308;28;20030;-92
2022/12/28 11:14:22;;;;;;;2.28;2.08;;;;;;;;;;4990014;28;20113;-94
2022/12/28 11:16:48;;;;;;;6.63;2.90;;;;;;;;;;4998479;28;20118;-92
2022/12/28 11:19:15;;;;;;;4.75;2.30;;;;;;;;;;4974669;28;20057;-93
2022/12/28 11:21:42;;;;;;;2.25;1.50;;;;;;;;;;4976742;28;20077;-92
2022/12/28 11:24:11;;;;;;;1.52;1.27;;;;;;;;;;4973300;28;20034;-94
2022/12/28 11:26:39;;;;;;;5.53;1.92;;;;;;;;;;5005785;28;20038;-93
2022/12/28 11:29:05;;;;;;;3.58;1.88;;;;;;;;;;4994531;28;20190;-93
2022/12/28 11:31:34;;;;;;;1.73;1.05;;;;;;;;;;4969595;28;20136;-93
2022/12/28 11:34:05;;;;;;;4.70;1.85;;;;;;;;;;4995747;28;20478;-93
2022/12/28 11:36:33;;;;;;;2.60;1.67;;;;;;;;;;5000595;28;20040;-94
2022/12/28 11:39:19;;;;;;;2.53;1.45;;;;;;;;;;4996070;28;20034;-93
2022/12/28 11:41:45;;;;;;;1.17;1.02;;;;;;;;;;5003341;28;20494;-91
2022/12/28 11:44:40;;;;;;;0.77;0.68;;;;;;;;;;4992773;28;20671;-93
2022/12/28 11:47:15;;;;;;;2.28;1.48;;;;;;;;;;4992741;28;20033;-93
2022/12/28 11:49:43;;;;;;;1.30;0.70;;;;;;;;;;5005231;28;20076;-93
2022/12/28 11:52:16;;;;;;;1.50;1.00;;;;;;;;;;4973463;28;20292;-92
2022/12/28 11:54:52;;;;;;;4.22;1.25;;;;;;;;;;4991429;28;20030;-92
2022/12/28 11:57:38;;;;;;;7.53;1.80;;;;;;;;;;4995933;28;20393;-93
2022/12/28 12:00:28;;;;;;;2.33;1.15;;;;;;;;;;4989166;28;20077;-93
2022/12/28 12:03:01;;;;;;;3.28;1.88;;;;;;;;;;4987668;28;20485;-93
2022/12/28 12:05:37;;;;;;;1.27;1.08;;;;;;;;;;5002282;28;20040;-93
2022/12/28 12:08:14;;;;;;;1.50;1.13;;;;;;;;;;5005908;28;20033;-93
2022/12/28 12:10:43;;;;;;;3.60;1.70;;;;;;;;;;4990518;28;20053;-93
2022/12/28 12:13:24;;;;;;;1.33;1.00;;;;;;;;;;5000726;28;20120;-93
2022/12/28 12:15:52;;;;;;;1.25;0.95;;;;;;;;;;4991417;28;20077;-93
2022/12/28 12:18:23;;;;;;;1.42;0.93;;;;;;;;;;4999365;28;20566;-94
2022/12/28 12:20:59;;;;;;;3.28;0.90;;;;;;;;;;4995951;28;20038;-93
2022/12/28 12:23:28;;;;;;;1.55;1.30;;;;;;;;;;4998975;28;20035;-93
2022/12/28 12:25:57;;;;;;;2.25;1.33;;;;;;;;;;4990697;28;20037;-92
2022/12/28 12:28:23;;;;;;;1.80;1.10;;;;;;;;;;4990765;28;20091;-92
2022/12/28 12:30:50;;;;;;;1.80;1.20;;;;;;;;;;4990897;28;20670;-93
2022/12/28 12:33:21;;;;;;;1.95;1.25;;;;;;;;;;4971040;28;20464;-92
2022/12/28 12:36:08;;;;;;;2.75;1.67;;;;;;;;;;4994489;28;20042;-93
2022/12/28 12:38:53;;;;;;;1.38;1.27;;;;;;;;;;4971186;28;20038;-93
2022/12/28 12:41:37;;;;;;;2.33;1.45;;;;;;;;;;4989653;28;20093;-94
2022/12/28 12:44:09;;;;;;;4.07;2.00;;;;;;;;;;4999740;28;20030;-94
2022/12/28 12:46:44;;;;;;;1.27;1.05;;;;;;;;;;4989541;28;20176;-92
2022/12/28 12:49:21;;;;;;;3.03;1.65;;;;;;;;;;5006707;28;20643;-93
2022/12/28 12:52:00;;;;;;;3.92;1.33;;;;;;;;;;4989275;28;20114;-93
2022/12/28 12:54:44;;;;;;;2.03;1.10;;;;;;;;;;5002339;28;20784;-93
2022/12/28 12:57:17;;;;;;;1.42;1.02;;;;;;;;;;5000272;28;20416;-93
2022/12/28 13:00:01;;;;;;;1.33;1.00;;;;;;;;;;4988720;28;20124;-94
2022/12/28 13:02:46;;;;;;;1.20;0.77;;;;;;;;;;5006790;28;20093;-93
2022/12/28 13:05:21;;;;;;;1.58;0.80;;;;;;;;;;4990182;28;20128;-94
2022/12/28 13:07:47;;;;;;;2.20;1.30;;;;;;;;;;4987896;28;20036;-94
2022/12/28 13:10:15;;;;;;;2.08;1.30;;;;;;;;;;4972519;28;20061;-93
2022/12/28 13:12:42;;;;;;;1.42;1.10;;;;;;;;;;4984431;28;20474;-93
2022/12/28 13:15:14;;;;;;;1.60;1.33;;;;;;;;;;4970043;28;20034;-92
2022/12/28 13:17:57;;;;;;;0.82;0.82;;;;;;;;;;4996301;28;20477;-91
2022/12/28 13:20:23;;;;;;;2.38;1.10;;;;;;;;;;4998226;28;20025;-90
2022/12/28 13:22:53;;;;;;;2.63;0.80;;;;;;;;;;4981621;28;20034;-90
2022/12/28 13:25:34;;;;;;;1.73;1.20;;;;;;;;;;5001713;28;20045;-96
2022/12/28 13:28:03;;;;;;;1.75;1.27;;;;;;;;;;4999913;28;20034;-92
2022/12/28 13:30:30;;;;;;;2.47;1.90;;;;;;;;;;5000609;28;20067;-92
2022/12/28 13:32:57;;;;;;;3.33;1.30;;;;;;;;;;4985183;28;20026;-93
2022/12/28 13:35:25;;;;;;;4.78;2.30;;;;;;;;;;4981844;28;20077;-87
2022/12/28 13:38:11;;;;;;;2.85;1.58;;;;;;;;;;4997474;28;20092;-87
2022/12/28 13:40:38;;;;;;;1.52;1.38;;;;;;;;;;5001879;28;20452;-87
2022/12/28 13:43:23;;;;;;;5.50;1.75;;;;;;;;;;4972046;28;20551;-87
2022/12/28 13:45:54;;;;;;;3.65;1.67;;;;;;;;;;4987145;28;20033;-93
2022/12/28 13:48:20;;;;;;;1.58;1.00;;;;;;;;;;5000323;28;20506;-93
2022/12/28 13:50:48;;;;;;;2.60;1.98;;;;;;;;;;4982320;28;20035;-93
2022/12/28 13:53:17;;;;;;;1.58;1.08;;;;;;;;;;4994081;28;20018;-93
2022/12/28 13:55:50;;;;;;;1.45;0.95;;;;;;;;;;4995204;28;20054;-94
2022/12/28 13:58:25;;;;;;;4.13;1.90;;;;;;;;;;4994116;28;20037;-92
2022/12/28 14:00:52;;;;;;;4.77;1.43;;;;;;;;;;5000894;28;20022;-93
2022/12/28 14:03:20;;;;;;;1.58;1.25;;;;;;;;;;5000573;28;20034;-93
2022/12/28 14:05:48;;;;;;;2.72;1.42;;;;;;;;;;4997602;28;20057;-93
2022/12/28 14:08:15;;;;;;;2.60;1.15;;;;;;;;;;4998063;28;20033;-92
2022/12/28 14:10:41;;;;;;;1.20;1.02;;;;;;;;;;5000161;28;20081;-93
2022/12/28 14:13:08;;;;;;;7.10;1.73;;;;;;;;;;4987058;28;20486;-93
2022/12/28 14:15:34;;;;;;;1.65;1.00;;;;;;;;;;4993502;28;20036;-93
2022/12/28 14:18:01;;;;;;;3.63;1.77;;;;;;;;;;4990107;28;20038;-93
2022/12/28 14:20:27;;;;;;;1.90;1.20;;;;;;;;;;5001594;28;20041;-94
2022/12/28 14:22:53;;;;;;;0.85;0.77;;;;;;;;;;4980605;28;20046;-93
2022/12/28 14:25:23;;;;;;;2.30;1.55;;;;;;;;;;4988834;28;20040;-92
2022/12/28 14:28:00;;;;;;;8.38;1.77;;;;;;;;;;5015166;28;20038;-93
2022/12/28 14:30:28;;;;;;;2.97;1.83;;;;;;;;;;5001660;28;20054;-90
2022/12/28 14:32:54;;;;;;;6.88;1.92;;;;;;;;;;4998092;28;20064;-93
2022/12/28 14:35:22;;;;;;;11.00;2.10;;;;;;;;;;4967441;28;20421;-93
2022/12/28 14:37:56;;;;;;;3.90;1.48;;;;;;;;;;5013841;28;20048;-92
2022/12/28 14:40:42;;;;;;;2.58;1.38;;;;;;;;;;4982402;28;20018;-94
2022/12/28 14:43:28;;;;;;;3.80;2.05;;;;;;;;;;5013586;28;20036;-92
2022/12/28 14:45:54;;;;;;;2.25;1.67;;;;;;;;;;5010765;28;20333;-92
2022/12/28 14:48:23;;;;;;;4.25;1.67;;;;;;;;;;4968376;28;20031;-91
2022/12/28 14:50:56;;;;;;;4.55;1.77;;;;;;;;;;4983880;28;20121;-92
2022/12/28 14:53:23;;;;;;;7.13;3.00;;;;;;;;;;5010408;28;20033;-91
2022/12/28 14:56:10;;;;;;;2.40;1.25;;;;;;;;;;4994570;28;20837;-93
2022/12/28 14:58:37;;;;;;;3.70;2.17;;;;;;;;;;5006678;28;20057;-91
2022/12/28 15:01:04;;;;;;;2.72;1.27;;;;;;;;;;5013013;28;20700;-92
2022/12/28 15:03:47;;;;;;;12.57;3.08;;;;;;;;;;5007177;28;20129;-92
2022/12/28 15:06:13;;;;;;;8.05;1.75;;;;;;;;;;5003939;28;20848;-92
2022/12/28 15:08:39;;;;;;;4.53;2.25;;;;;;;;;;4978562;28;20046;-92
2022/12/28 15:11:05;;;;;;;4.30;1.58;;;;;;;;;;4987416;28;20062;-92
2022/12/28 15:13:34;;;;;;;2.83;2.15;;;;;;;;;;4978649;28;20022;-93
2022/12/28 15:16:02;;;;;;;8.77;2.20;;;;;;;;;;4968706;28;20041;-93